sensor_id;sensor_type;location;lat;lon;timestamp;P1;durP1;ratioP1;P2;durP2;ratioP2
7665;SDS011;3875;46.562;4.898;2023-02-18T00:01:20;3.43;;;2.60;;
7665;SDS011;3875;46.562;4.898;2023-02-18T00:03:47;4.03;;;2.47;;
7665;SDS011;3875;46.562;4.898;2023-02-18T00:06:15;1.57;;;1.47;;
7665;SDS011;3875;46.562;4.898;2023-02-18T00:08:43;1.97;;;1.63;;
7665;SDS011;3875;46.562;4.898;2023-02-18T00:11:10;1.93;;;1.70;;
7665;SDS011;3875;46.562;4.898;2023-02-18T00:13:36;2.33;;;1.80;;
7665;SDS011;3875;46.562;4.898;2023-02-18T00:16:06;2.47;;;1.90;;
7665;SDS011;3875;46.562;4.898;2023-02-18T00:18:33;2.13;;;1.87;;
7665;SDS011;3875;46.562;4.898;2023-02-18T00:20:59;6.23;;;1.70;;
7665;SDS011;3875;46.562;4.898;2023-02-18T00:23:27;1.67;;;1.57;;
7665;SDS011;3875;46.562;4.898;2023-02-18T00:26:03;3.77;;;1.97;;
7665;SDS011;3875;46.562;4.898;2023-02-18T00:28:38;3.63;;;1.90;;
7665;SDS011;3875;46.562;4.898;2023-02-18T00:31:15;2.53;;;2.00;;
7665;SDS011;3875;46.562;4.898;2023-02-18T00:33:43;4.10;;;1.90;;
7665;SDS011;3875;46.562;4.898;2023-02-18T00:36:11;2.07;;;1.87;;
7665;SDS011;3875;46.562;4.898;2023-02-18T00:38:39;3.80;;;2.10;;
7665;SDS011;3875;46.562;4.898;2023-02-18T00:41:09;3.07;;;2.10;;
7665;SDS011;3875;46.562;4.898;2023-02-18T00:43:35;3.53;;;2.10;;
7665;SDS011;3875;46.562;4.898;2023-02-18T00:46:00;2.07;;;1.87;;
7665;SDS011;3875;46.562;4.898;2023-02-18T00:48:26;3.20;;;2.40;;
7665;SDS011;3875;46.562;4.898;2023-02-18T00:50:52;2.40;;;2.20;;
7665;SDS011;3875;46.562;4.898;2023-02-18T00:53:18;3.10;;;2.77;;
7665;SDS011;3875;46.562;4.898;2023-02-18T00:55:45;4.00;;;3.50;;
7665;SDS011;3875;46.562;4.898;2023-02-18T00:58:12;4.47;;;3.87;;
7665;SDS011;3875;46.562;4.898;2023-02-18T01:00:39;4.73;;;3.63;;
7665;SDS011;3875;46.562;4.898;2023-02-18T01:03:05;7.17;;;4.17;;
7665;SDS011;3875;46.562;4.898;2023-02-18T01:05:35;6.20;;;4.07;;
7665;SDS011;3875;46.562;4.898;2023-02-18T01:08:01;5.17;;;3.80;;
7665;SDS011;3875;46.562;4.898;2023-02-18T01:10:27;6.37;;;4.40;;
7665;SDS011;3875;46.562;4.898;2023-02-18T01:12:53;6.73;;;3.63;;
7665;SDS011;3875;46.562;4.898;2023-02-18T01:15:19;4.70;;;3.20;;
7665;SDS011;3875;46.562;4.898;2023-02-18T01:17:45;5.83;;;3.33;;
7665;SDS011;3875;46.562;4.898;2023-02-18T01:20:11;5.33;;;3.37;;
7665;SDS011;3875;46.562;4.898;2023-02-18T01:22:38;4.00;;;3.40;;
7665;SDS011;3875;46.562;4.898;2023-02-18T01:25:04;4.47;;;3.10;;
7665;SDS011;3875;46.562;4.898;2023-02-18T01:27:30;3.40;;;3.10;;
7665;SDS011;3875;46.562;4.898;2023-02-18T01:29:55;3.00;;;2.70;;
7665;SDS011;3875;46.562;4.898;2023-02-18T01:32:21;5.03;;;2.67;;
7665;SDS011;3875;46.562;4.898;2023-02-18T01:34:47;3.47;;;3.07;;
7665;SDS011;3875;46.562;4.898;2023-02-18T01:37:13;2.60;;;2.40;;
7665;SDS011;3875;46.562;4.898;2023-02-18T01:39:38;3.50;;;2.80;;
7665;SDS011;3875;46.562;4.898;2023-02-18T01:42:04;3.70;;;2.73;;
7665;SDS011;3875;46.562;4.898;2023-02-18T01:44:33;3.27;;;2.70;;
7665;SDS011;3875;46.562;4.898;2023-02-18T01:46:59;3.50;;;2.60;;
7665;SDS011;3875;46.562;4.898;2023-02-18T01:49:26;3.50;;;2.77;;
7665;SDS011;3875;46.562;4.898;2023-02-18T01:51:56;3.73;;;2.90;;
7665;SDS011;3875;46.562;4.898;2023-02-18T01:54:27;3.20;;;2.90;;
7665;SDS011;3875;46.562;4.898;2023-02-18T02:00:08;3.67;;;3.00;;
7665;SDS011;3875;46.562;4.898;2023-02-18T02:02:39;5.67;;;3.90;;
7665;SDS011;3875;46.562;4.898;2023-02-18T02:05:09;5.73;;;4.30;;
7665;SDS011;3875;46.562;4.898;2023-02-18T02:07:35;4.67;;;3.83;;
7665;SDS011;3875;46.562;4.898;2023-02-18T02:10:01;5.97;;;4.63;;
7665;SDS011;3875;46.562;4.898;2023-02-18T02:15:37;6.67;;;4.47;;
7665;SDS011;3875;46.562;4.898;2023-02-18T02:33:07;9.40;;;5.83;;
7665;SDS011;3875;46.562;4.898;2023-02-18T02:46:38;6.70;;;5.50;;
7665;SDS011;3875;46.562;4.898;2023-02-18T02:54:15;8.30;;;5.90;;
7665;SDS011;3875;46.562;4.898;2023-02-18T02:56:49;6.33;;;5.10;;
7665;SDS011;3875;46.562;4.898;2023-02-18T02:59:28;7.33;;;4.80;;
7665;SDS011;3875;46.562;4.898;2023-02-18T03:10:59;5.37;;;3.80;;
7665;SDS011;3875;46.562;4.898;2023-02-18T03:13:16;5.73;;;3.77;;
7665;SDS011;3875;46.562;4.898;2023-02-18T03:15:51;7.43;;;4.13;;
7665;SDS011;3875;46.562;4.898;2023-02-18T03:21:03;5.13;;;3.93;;
7665;SDS011;3875;46.562;4.898;2023-02-18T03:23:37;4.90;;;4.13;;
7665;SDS011;3875;46.562;4.898;2023-02-18T03:26:17;5.60;;;4.47;;
7665;SDS011;3875;46.562;4.898;2023-02-18T03:28:45;7.13;;;4.67;;
7665;SDS011;3875;46.562;4.898;2023-02-18T03:31:14;7.60;;;4.80;;
7665;SDS011;3875;46.562;4.898;2023-02-18T03:33:46;7.43;;;5.47;;
7665;SDS011;3875;46.562;4.898;2023-02-18T03:36:18;6.83;;;4.57;;
7665;SDS011;3875;46.562;4.898;2023-02-18T03:38:55;5.50;;;4.60;;
7665;SDS011;3875;46.562;4.898;2023-02-18T03:41:27;7.80;;;4.63;;
7665;SDS011;3875;46.562;4.898;2023-02-18T03:43:58;5.70;;;4.87;;
7665;SDS011;3875;46.562;4.898;2023-02-18T03:46:26;7.00;;;5.30;;
7665;SDS011;3875;46.562;4.898;2023-02-18T03:48:52;7.93;;;4.87;;
7665;SDS011;3875;46.562;4.898;2023-02-18T03:51:18;6.97;;;5.23;;
7665;SDS011;3875;46.562;4.898;2023-02-18T03:53:44;6.83;;;5.10;;
7665;SDS011;3875;46.562;4.898;2023-02-18T03:56:10;5.00;;;4.60;;
7665;SDS011;3875;46.562;4.898;2023-02-18T03:58:36;6.70;;;4.93;;
7665;SDS011;3875;46.562;4.898;2023-02-18T04:01:03;8.73;;;4.67;;
7665;SDS011;3875;46.562;4.898;2023-02-18T04:03:28;8.17;;;5.10;;
7665;SDS011;3875;46.562;4.898;2023-02-18T04:05:54;6.40;;;5.53;;
7665;SDS011;3875;46.562;4.898;2023-02-18T04:08:20;9.60;;;6.30;;
7665;SDS011;3875;46.562;4.898;2023-02-18T04:10:46;8.23;;;6.10;;
7665;SDS011;3875;46.562;4.898;2023-02-18T04:13:11;10.50;;;6.20;;
7665;SDS011;3875;46.562;4.898;2023-02-18T04:15:37;7.97;;;7.07;;
7665;SDS011;3875;46.562;4.898;2023-02-18T04:18:03;9.80;;;8.27;;
7665;SDS011;3875;46.562;4.898;2023-02-18T04:20:29;11.23;;;8.27;;
7665;SDS011;3875;46.562;4.898;2023-02-18T04:22:55;10.37;;;8.73;;
7665;SDS011;3875;46.562;4.898;2023-02-18T04:25:20;12.73;;;9.40;;
7665;SDS011;3875;46.562;4.898;2023-02-18T04:27:46;11.50;;;9.83;;
7665;SDS011;3875;46.562;4.898;2023-02-18T04:30:12;13.67;;;10.33;;
7665;SDS011;3875;46.562;4.898;2023-02-18T04:32:38;12.10;;;9.93;;
7665;SDS011;3875;46.562;4.898;2023-02-18T04:35:04;14.90;;;9.60;;
7665;SDS011;3875;46.562;4.898;2023-02-18T04:37:30;12.70;;;9.90;;
7665;SDS011;3875;46.562;4.898;2023-02-18T04:39:56;11.73;;;9.37;;
7665;SDS011;3875;46.562;4.898;2023-02-18T04:42:21;10.67;;;8.87;;
7665;SDS011;3875;46.562;4.898;2023-02-18T04:44:47;10.77;;;8.13;;
7665;SDS011;3875;46.562;4.898;2023-02-18T04:47:13;12.13;;;7.77;;
7665;SDS011;3875;46.562;4.898;2023-02-18T04:49:39;10.57;;;8.00;;
7665;SDS011;3875;46.562;4.898;2023-02-18T04:52:04;11.03;;;8.17;;
7665;SDS011;3875;46.562;4.898;2023-02-18T04:54:30;9.37;;;7.90;;
7665;SDS011;3875;46.562;4.898;2023-02-18T04:56:56;12.33;;;9.03;;
7665;SDS011;3875;46.562;4.898;2023-02-18T04:59:22;9.20;;;7.80;;
7665;SDS011;3875;46.562;4.898;2023-02-18T05:01:47;13.60;;;9.00;;
7665;SDS011;3875;46.562;4.898;2023-02-18T05:04:13;15.13;;;10.07;;
7665;SDS011;3875;46.562;4.898;2023-02-18T05:06:39;13.57;;;11.10;;
7665;SDS011;3875;46.562;4.898;2023-02-18T05:09:07;12.67;;;9.83;;
7665;SDS011;3875;46.562;4.898;2023-02-18T05:11:32;12.37;;;10.00;;
7665;SDS011;3875;46.562;4.898;2023-02-18T05:13:58;12.13;;;10.43;;
7665;SDS011;3875;46.562;4.898;2023-02-18T05:16:24;11.67;;;10.07;;
7665;SDS011;3875;46.562;4.898;2023-02-18T05:18:49;12.33;;;10.10;;
7665;SDS011;3875;46.562;4.898;2023-02-18T05:21:15;11.30;;;10.03;;
7665;SDS011;3875;46.562;4.898;2023-02-18T05:23:41;12.33;;;10.03;;
7665;SDS011;3875;46.562;4.898;2023-02-18T05:26:06;12.60;;;10.07;;
7665;SDS011;3875;46.562;4.898;2023-02-18T05:28:32;12.83;;;9.03;;
7665;SDS011;3875;46.562;4.898;2023-02-18T05:30:58;11.93;;;9.70;;
7665;SDS011;3875;46.562;4.898;2023-02-18T05:33:24;10.73;;;8.93;;
7665;SDS011;3875;46.562;4.898;2023-02-18T05:35:49;10.63;;;8.27;;
7665;SDS011;3875;46.562;4.898;2023-02-18T05:38:15;14.80;;;10.80;;
7665;SDS011;3875;46.562;4.898;2023-02-18T05:40:41;13.50;;;11.30;;
7665;SDS011;3875;46.562;4.898;2023-02-18T05:43:06;15.57;;;11.67;;
7665;SDS011;3875;46.562;4.898;2023-02-18T05:45:32;14.83;;;12.13;;
7665;SDS011;3875;46.562;4.898;2023-02-18T05:47:58;22.63;;;14.73;;
7665;SDS011;3875;46.562;4.898;2023-02-18T05:50:23;21.20;;;14.90;;
7665;SDS011;3875;46.562;4.898;2023-02-18T05:52:49;15.77;;;12.43;;
7665;SDS011;3875;46.562;4.898;2023-02-18T05:55:15;15.77;;;11.63;;
7665;SDS011;3875;46.562;4.898;2023-02-18T05:57:40;15.60;;;12.67;;
7665;SDS011;3875;46.562;4.898;2023-02-18T06:00:06;17.77;;;12.60;;
7665;SDS011;3875;46.562;4.898;2023-02-18T06:02:35;14.17;;;10.97;;
7665;SDS011;3875;46.562;4.898;2023-02-18T06:05:01;12.93;;;9.37;;
7665;SDS011;3875;46.562;4.898;2023-02-18T06:07:27;11.83;;;8.73;;
7665;SDS011;3875;46.562;4.898;2023-02-18T06:09:53;10.23;;;8.50;;
7665;SDS011;3875;46.562;4.898;2023-02-18T06:12:18;11.83;;;8.43;;
7665;SDS011;3875;46.562;4.898;2023-02-18T06:14:44;10.60;;;8.70;;
7665;SDS011;3875;46.562;4.898;2023-02-18T06:17:10;12.53;;;8.47;;
7665;SDS011;3875;46.562;4.898;2023-02-18T06:19:36;11.17;;;8.90;;
7665;SDS011;3875;46.562;4.898;2023-02-18T06:22:03;11.63;;;9.23;;
7665;SDS011;3875;46.562;4.898;2023-02-18T06:24:29;11.43;;;9.10;;
7665;SDS011;3875;46.562;4.898;2023-02-18T06:26:55;11.63;;;8.97;;
7665;SDS011;3875;46.562;4.898;2023-02-18T06:29:21;12.00;;;8.90;;
7665;SDS011;3875;46.562;4.898;2023-02-18T06:31:47;12.67;;;9.40;;
7665;SDS011;3875;46.562;4.898;2023-02-18T06:34:12;13.80;;;9.37;;
7665;SDS011;3875;46.562;4.898;2023-02-18T06:36:38;11.97;;;9.47;;
7665;SDS011;3875;46.562;4.898;2023-02-18T06:39:04;12.10;;;8.60;;
7665;SDS011;3875;46.562;4.898;2023-02-18T06:41:30;8.40;;;7.47;;
7665;SDS011;3875;46.562;4.898;2023-02-18T06:43:56;8.57;;;7.50;;
7665;SDS011;3875;46.562;4.898;2023-02-18T06:46:21;8.83;;;6.83;;
7665;SDS011;3875;46.562;4.898;2023-02-18T06:48:47;9.87;;;7.07;;
7665;SDS011;3875;46.562;4.898;2023-02-18T06:51:13;11.00;;;7.23;;
7665;SDS011;3875;46.562;4.898;2023-02-18T06:53:40;9.57;;;7.10;;
7665;SDS011;3875;46.562;4.898;2023-02-18T06:56:06;8.40;;;7.47;;
7665;SDS011;3875;46.562;4.898;2023-02-18T06:58:32;11.47;;;9.03;;
7665;SDS011;3875;46.562;4.898;2023-02-18T07:00:57;10.40;;;8.67;;
7665;SDS011;3875;46.562;4.898;2023-02-18T07:03:23;10.27;;;8.63;;
7665;SDS011;3875;46.562;4.898;2023-02-18T07:05:49;9.47;;;7.00;;
7665;SDS011;3875;46.562;4.898;2023-02-18T07:08:16;7.80;;;6.87;;
7665;SDS011;3875;46.562;4.898;2023-02-18T07:10:42;9.50;;;7.63;;
7665;SDS011;3875;46.562;4.898;2023-02-18T07:13:08;7.77;;;6.83;;
7665;SDS011;3875;46.562;4.898;2023-02-18T07:15:33;9.07;;;7.50;;
7665;SDS011;3875;46.562;4.898;2023-02-18T07:17:59;8.20;;;7.03;;
7665;SDS011;3875;46.562;4.898;2023-02-18T07:20:25;9.90;;;6.83;;
7665;SDS011;3875;46.562;4.898;2023-02-18T07:22:51;8.23;;;6.40;;
7665;SDS011;3875;46.562;4.898;2023-02-18T07:25:17;8.13;;;6.67;;
7665;SDS011;3875;46.562;4.898;2023-02-18T07:27:44;8.97;;;7.27;;
7665;SDS011;3875;46.562;4.898;2023-02-18T07:30:09;8.83;;;7.00;;
7665;SDS011;3875;46.562;4.898;2023-02-18T07:32:35;9.73;;;7.47;;
7665;SDS011;3875;46.562;4.898;2023-02-18T07:35:02;9.40;;;8.27;;
7665;SDS011;3875;46.562;4.898;2023-02-18T07:37:28;11.80;;;9.13;;
7665;SDS011;3875;46.562;4.898;2023-02-18T07:39:54;12.30;;;8.60;;
7665;SDS011;3875;46.562;4.898;2023-02-18T07:42:20;11.23;;;8.87;;
7665;SDS011;3875;46.562;4.898;2023-02-18T07:44:45;10.00;;;8.83;;
7665;SDS011;3875;46.562;4.898;2023-02-18T07:47:12;11.20;;;9.40;;
7665;SDS011;3875;46.562;4.898;2023-02-18T07:49:39;12.30;;;10.20;;
7665;SDS011;3875;46.562;4.898;2023-02-18T07:52:04;12.63;;;11.33;;
7665;SDS011;3875;46.562;4.898;2023-02-18T07:54:30;16.27;;;11.97;;
7665;SDS011;3875;46.562;4.898;2023-02-18T07:56:56;16.87;;;12.17;;
7665;SDS011;3875;46.562;4.898;2023-02-18T07:59:21;15.30;;;12.57;;
7665;SDS011;3875;46.562;4.898;2023-02-18T08:01:47;17.33;;;13.57;;
7665;SDS011;3875;46.562;4.898;2023-02-18T08:04:13;17.23;;;13.80;;
7665;SDS011;3875;46.562;4.898;2023-02-18T08:06:40;17.40;;;13.97;;
7665;SDS011;3875;46.562;4.898;2023-02-18T08:09:08;18.87;;;15.97;;
7665;SDS011;3875;46.562;4.898;2023-02-18T08:11:34;21.13;;;16.97;;
7665;SDS011;3875;46.562;4.898;2023-02-18T08:14:00;22.73;;;19.13;;
7665;SDS011;3875;46.562;4.898;2023-02-18T08:16:26;24.57;;;19.43;;
7665;SDS011;3875;46.562;4.898;2023-02-18T08:18:52;25.60;;;19.53;;
7665;SDS011;3875;46.562;4.898;2023-02-18T08:21:19;28.90;;;24.27;;
7665;SDS011;3875;46.562;4.898;2023-02-18T08:23:46;34.23;;;27.03;;
7665;SDS011;3875;46.562;4.898;2023-02-18T08:26:13;26.07;;;22.03;;
7665;SDS011;3875;46.562;4.898;2023-02-18T08:28:39;24.73;;;20.17;;
7665;SDS011;3875;46.562;4.898;2023-02-18T08:31:05;27.37;;;21.77;;
7665;SDS011;3875;46.562;4.898;2023-02-18T08:33:31;29.37;;;20.67;;
7665;SDS011;3875;46.562;4.898;2023-02-18T08:35:57;25.67;;;22.37;;
7665;SDS011;3875;46.562;4.898;2023-02-18T08:38:23;30.53;;;22.20;;
7665;SDS011;3875;46.562;4.898;2023-02-18T08:40:49;25.83;;;22.77;;
7665;SDS011;3875;46.562;4.898;2023-02-18T08:43:24;28.17;;;22.80;;
7665;SDS011;3875;46.562;4.898;2023-02-18T08:45:50;56.67;;;37.03;;
7665;SDS011;3875;46.562;4.898;2023-02-18T08:48:16;29.50;;;22.13;;
7665;SDS011;3875;46.562;4.898;2023-02-18T08:50:41;27.83;;;22.67;;
7665;SDS011;3875;46.562;4.898;2023-02-18T08:53:07;24.37;;;21.17;;
7665;SDS011;3875;46.562;4.898;2023-02-18T08:55:33;27.37;;;21.37;;
7665;SDS011;3875;46.562;4.898;2023-02-18T08:57:59;27.37;;;21.43;;
7665;SDS011;3875;46.562;4.898;2023-02-18T09:00:25;27.87;;;22.67;;
7665;SDS011;3875;46.562;4.898;2023-02-18T09:02:51;24.50;;;20.87;;
7665;SDS011;3875;46.562;4.898;2023-02-18T09:05:16;23.63;;;19.73;;
7665;SDS011;3875;46.562;4.898;2023-02-18T09:07:42;24.00;;;20.07;;
7665;SDS011;3875;46.562;4.898;2023-02-18T09:10:09;23.77;;;19.07;;
7665;SDS011;3875;46.562;4.898;2023-02-18T09:12:35;22.90;;;17.17;;
7665;SDS011;3875;46.562;4.898;2023-02-18T09:15:01;24.10;;;18.40;;
7665;SDS011;3875;46.562;4.898;2023-02-18T09:17:27;26.00;;;19.83;;
7665;SDS011;3875;46.562;4.898;2023-02-18T09:19:53;22.60;;;18.27;;
7665;SDS011;3875;46.562;4.898;2023-02-18T09:22:19;22.43;;;18.40;;
7665;SDS011;3875;46.562;4.898;2023-02-18T09:24:45;29.50;;;19.47;;
7665;SDS011;3875;46.562;4.898;2023-02-18T09:27:10;21.87;;;18.43;;
7665;SDS011;3875;46.562;4.898;2023-02-18T09:29:37;22.33;;;16.73;;
7665;SDS011;3875;46.562;4.898;2023-02-18T09:32:04;19.77;;;16.97;;
7665;SDS011;3875;46.562;4.898;2023-02-18T09:34:32;21.03;;;17.43;;
7665;SDS011;3875;46.562;4.898;2023-02-18T09:36:58;22.43;;;16.70;;
7665;SDS011;3875;46.562;4.898;2023-02-18T09:39:24;17.90;;;15.00;;
7665;SDS011;3875;46.562;4.898;2023-02-18T09:41:59;8.03;;;6.53;;
7665;SDS011;3875;46.562;4.898;2023-02-18T09:44:28;7.13;;;5.43;;
7665;SDS011;3875;46.562;4.898;2023-02-18T09:47:04;5.73;;;4.97;;
7665;SDS011;3875;46.562;4.898;2023-02-18T09:49:37;4.97;;;4.33;;
7665;SDS011;3875;46.562;4.898;2023-02-18T09:54:37;3.73;;;2.90;;
7665;SDS011;3875;46.562;4.898;2023-02-18T09:57:03;12.60;;;9.67;;
7665;SDS011;3875;46.562;4.898;2023-02-18T09:59:31;14.77;;;12.60;;
7665;SDS011;3875;46.562;4.898;2023-02-18T10:01:57;3.90;;;3.00;;
7665;SDS011;3875;46.562;4.898;2023-02-18T10:04:29;17.00;;;12.40;;
7665;SDS011;3875;46.562;4.898;2023-02-18T10:07:04;15.67;;;13.07;;
7665;SDS011;3875;46.562;4.898;2023-02-18T10:09:34;16.13;;;13.47;;
7665;SDS011;3875;46.562;4.898;2023-02-18T10:12:12;12.73;;;11.43;;
7665;SDS011;3875;46.562;4.898;2023-02-18T10:14:45;7.30;;;6.07;;
7665;SDS011;3875;46.562;4.898;2023-02-18T10:17:16;7.30;;;6.10;;
7665;SDS011;3875;46.562;4.898;2023-02-18T10:19:45;13.33;;;10.00;;
7665;SDS011;3875;46.562;4.898;2023-02-18T10:22:12;10.07;;;8.70;;
7665;SDS011;3875;46.562;4.898;2023-02-18T10:24:41;8.27;;;6.43;;
7665;SDS011;3875;46.562;4.898;2023-02-18T10:27:12;3.50;;;3.20;;
7665;SDS011;3875;46.562;4.898;2023-02-18T10:29:55;4.93;;;3.20;;
7665;SDS011;3875;46.562;4.898;2023-02-18T10:32:27;3.83;;;2.90;;
7665;SDS011;3875;46.562;4.898;2023-02-18T10:35:35;5.53;;;3.10;;
7665;SDS011;3875;46.562;4.898;2023-02-18T10:38:07;3.50;;;3.20;;
7665;SDS011;3875;46.562;4.898;2023-02-18T10:46:33;5.00;;;3.00;;
7665;SDS011;3875;46.562;4.898;2023-02-18T10:52:09;4.30;;;3.07;;
7665;SDS011;3875;46.562;4.898;2023-02-18T10:55:00;4.20;;;3.50;;
7665;SDS011;3875;46.562;4.898;2023-02-18T10:57:29;5.50;;;3.17;;
7665;SDS011;3875;46.562;4.898;2023-02-18T11:02:39;4.47;;;3.50;;
7665;SDS011;3875;46.562;4.898;2023-02-18T11:05:15;4.17;;;3.43;;
7665;SDS011;3875;46.562;4.898;2023-02-18T11:07:41;3.80;;;3.40;;
7665;SDS011;3875;46.562;4.898;2023-02-18T11:10:55;4.53;;;3.73;;
7665;SDS011;3875;46.562;4.898;2023-02-18T11:13:08;4.30;;;3.87;;
7665;SDS011;3875;46.562;4.898;2023-02-18T11:15:36;4.53;;;3.77;;
7665;SDS011;3875;46.562;4.898;2023-02-18T11:21:03;7.80;;;3.63;;
7665;SDS011;3875;46.562;4.898;2023-02-18T11:23:44;4.67;;;3.93;;
7665;SDS011;3875;46.562;4.898;2023-02-18T11:26:20;3.53;;;3.23;;
7665;SDS011;3875;46.562;4.898;2023-02-18T11:28:57;4.67;;;3.37;;
7665;SDS011;3875;46.562;4.898;2023-02-18T11:31:39;3.30;;;3.00;;
7665;SDS011;3875;46.562;4.898;2023-02-18T11:34:12;3.20;;;2.87;;
7665;SDS011;3875;46.562;4.898;2023-02-18T11:36:44;6.23;;;3.13;;
7665;SDS011;3875;46.562;4.898;2023-02-18T11:41:55;5.23;;;3.43;;
7665;SDS011;3875;46.562;4.898;2023-02-18T11:47:03;4.57;;;2.80;;
7665;SDS011;3875;46.562;4.898;2023-02-18T11:49:30;3.97;;;2.73;;
7665;SDS011;3875;46.562;4.898;2023-02-18T11:52:17;4.40;;;2.60;;
7665;SDS011;3875;46.562;4.898;2023-02-18T11:55:04;2.73;;;2.37;;
7665;SDS011;3875;46.562;4.898;2023-02-18T11:57:31;2.80;;;2.60;;
7665;SDS011;3875;46.562;4.898;2023-02-18T12:00:00;3.70;;;2.50;;
7665;SDS011;3875;46.562;4.898;2023-02-18T12:05:04;2.93;;;2.73;;
7665;SDS011;3875;46.562;4.898;2023-02-18T12:10:34;3.28;;;2.90;;
7665;SDS011;3875;46.562;4.898;2023-02-18T12:13:06;3.00;;;2.70;;
7665;SDS011;3875;46.562;4.898;2023-02-18T12:18:56;6.60;;;5.67;;
7665;SDS011;3875;46.562;4.898;2023-02-18T12:21:42;7.97;;;5.40;;
7665;SDS011;3875;46.562;4.898;2023-02-18T12:24:47;5.47;;;4.77;;
7665;SDS011;3875;46.562;4.898;2023-02-18T12:32:35;5.07;;;4.57;;
7665;SDS011;3875;46.562;4.898;2023-02-18T12:43:56;3.13;;;2.57;;
7665;SDS011;3875;46.562;4.898;2023-02-18T12:46:43;2.77;;;2.50;;
7665;SDS011;3875;46.562;4.898;2023-02-18T13:00:10;2.10;;;1.40;;
7665;SDS011;3875;46.562;4.898;2023-02-18T13:11:58;1.87;;;1.73;;
7665;SDS011;3875;46.562;4.898;2023-02-18T13:14:48;1.40;;;1.30;;
7665;SDS011;3875;46.562;4.898;2023-02-18T13:17:22;1.50;;;1.40;;
7665;SDS011;3875;46.562;4.898;2023-02-18T13:19:53;1.70;;;1.60;;
7665;SDS011;3875;46.562;4.898;2023-02-18T13:22:24;3.33;;;1.30;;
7665;SDS011;3875;46.562;4.898;2023-02-18T13:24:53;2.63;;;1.23;;
7665;SDS011;3875;46.562;4.898;2023-02-18T13:30:17;1.50;;;1.40;;
7665;SDS011;3875;46.562;4.898;2023-02-18T13:36:21;1.90;;;1.53;;
7665;SDS011;3875;46.562;4.898;2023-02-18T13:41:09;2.15;;;1.70;;
7665;SDS011;3875;46.562;4.898;2023-02-18T13:43:35;2.75;;;1.63;;
7665;SDS011;3875;46.562;4.898;2023-02-18T13:48:27;2.37;;;1.30;;
7665;SDS011;3875;46.562;4.898;2023-02-18T13:50:53;1.67;;;1.20;;
7665;SDS011;3875;46.562;4.898;2023-02-18T13:53:27;1.33;;;1.10;;
7665;SDS011;3875;46.562;4.898;2023-02-18T13:58:27;1.40;;;1.30;;
7665;SDS011;3875;46.562;4.898;2023-02-18T14:01:21;2.43;;;1.30;;
7665;SDS011;3875;46.562;4.898;2023-02-18T14:03:58;1.27;;;1.00;;
7665;SDS011;3875;46.562;4.898;2023-02-18T14:06:26;1.30;;;1.20;;
7665;SDS011;3875;46.562;4.898;2023-02-18T14:11:47;1.60;;;1.20;;
7665;SDS011;3875;46.562;4.898;2023-02-18T14:19:37;1.77;;;1.00;;
7665;SDS011;3875;46.562;4.898;2023-02-18T14:27:38;1.40;;;1.23;;
7665;SDS011;3875;46.562;4.898;2023-02-18T14:30:05;1.30;;;1.20;;
7665;SDS011;3875;46.562;4.898;2023-02-18T14:32:32;1.17;;;1.03;;
7665;SDS011;3875;46.562;4.898;2023-02-18T14:35:19;1.60;;;1.13;;
7665;SDS011;3875;46.562;4.898;2023-02-18T14:51:47;1.30;;;1.20;;
7665;SDS011;3875;46.562;4.898;2023-02-18T14:54:17;1.87;;;1.23;;
7665;SDS011;3875;46.562;4.898;2023-02-18T14:56:50;1.00;;;1.00;;
7665;SDS011;3875;46.562;4.898;2023-02-18T14:59:20;2.80;;;1.20;;
7665;SDS011;3875;46.562;4.898;2023-02-18T15:01:47;1.30;;;1.20;;
7665;SDS011;3875;46.562;4.898;2023-02-18T15:04:14;0.97;;;0.97;;
7665;SDS011;3875;46.562;4.898;2023-02-18T15:06:40;2.00;;;0.97;;
7665;SDS011;3875;46.562;4.898;2023-02-18T15:09:43;1.53;;;1.10;;
7665;SDS011;3875;46.562;4.898;2023-02-18T15:14:38;1.50;;;0.90;;
7665;SDS011;3875;46.562;4.898;2023-02-18T15:17:12;1.05;;;0.95;;
7665;SDS011;3875;46.562;4.898;2023-02-18T15:19:42;1.20;;;0.88;;
7665;SDS011;3875;46.562;4.898;2023-02-18T15:22:14;1.10;;;0.90;;
7665;SDS011;3875;46.562;4.898;2023-02-18T15:24:42;1.00;;;1.00;;
7665;SDS011;3875;46.562;4.898;2023-02-18T15:29:41;0.80;;;0.80;;
7665;SDS011;3875;46.562;4.898;2023-02-18T15:35:14;1.23;;;1.13;;
7665;SDS011;3875;46.562;4.898;2023-02-18T15:37:45;1.00;;;0.90;;
7665;SDS011;3875;46.562;4.898;2023-02-18T15:40:16;1.10;;;1.00;;
7665;SDS011;3875;46.562;4.898;2023-02-18T15:42:44;0.90;;;0.90;;
7665;SDS011;3875;46.562;4.898;2023-02-18T15:48:19;1.13;;;1.00;;
7665;SDS011;3875;46.562;4.898;2023-02-18T15:50:52;2.00;;;1.20;;
7665;SDS011;3875;46.562;4.898;2023-02-18T15:53:20;1.30;;;1.10;;
7665;SDS011;3875;46.562;4.898;2023-02-18T15:55:48;0.90;;;0.90;;
7665;SDS011;3875;46.562;4.898;2023-02-18T15:58:27;1.20;;;1.00;;
7665;SDS011;3875;46.562;4.898;2023-02-18T16:01:02;1.20;;;1.10;;
7665;SDS011;3875;46.562;4.898;2023-02-18T16:03:31;1.37;;;1.27;;
7665;SDS011;3875;46.562;4.898;2023-02-18T16:06:33;1.03;;;0.87;;
7665;SDS011;3875;46.562;4.898;2023-02-18T16:11:46;1.10;;;1.00;;
7665;SDS011;3875;46.562;4.898;2023-02-18T16:14:26;1.17;;;1.07;;
7665;SDS011;3875;46.562;4.898;2023-02-18T16:17:13;0.83;;;0.83;;
7665;SDS011;3875;46.562;4.898;2023-02-18T16:20:00;1.03;;;0.90;;
7665;SDS011;3875;46.562;4.898;2023-02-18T16:22:42;1.37;;;1.13;;
7665;SDS011;3875;46.562;4.898;2023-02-18T16:28:12;1.00;;;1.00;;
7665;SDS011;3875;46.562;4.898;2023-02-18T16:30:35;1.00;;;1.00;;
7665;SDS011;3875;46.562;4.898;2023-02-18T16:33:01;1.17;;;1.07;;
7665;SDS011;3875;46.562;4.898;2023-02-18T16:35:28;1.30;;;1.10;;
7665;SDS011;3875;46.562;4.898;2023-02-18T16:37:55;1.93;;;1.03;;
7665;SDS011;3875;46.562;4.898;2023-02-18T16:40:25;3.13;;;1.10;;
7665;SDS011;3875;46.562;4.898;2023-02-18T16:42:51;1.57;;;1.20;;
7665;SDS011;3875;46.562;4.898;2023-02-18T16:45:18;1.23;;;1.13;;
7665;SDS011;3875;46.562;4.898;2023-02-18T16:47:45;1.13;;;1.03;;
7665;SDS011;3875;46.562;4.898;2023-02-18T16:50:13;1.20;;;1.10;;
7665;SDS011;3875;46.562;4.898;2023-02-18T16:52:42;1.50;;;1.40;;
7665;SDS011;3875;46.562;4.898;2023-02-18T16:55:11;2.17;;;1.37;;
7665;SDS011;3875;46.562;4.898;2023-02-18T16:57:42;1.27;;;1.00;;
7665;SDS011;3875;46.562;4.898;2023-02-18T17:00:08;1.53;;;1.00;;
7665;SDS011;3875;46.562;4.898;2023-02-18T17:02:34;0.93;;;0.90;;
7665;SDS011;3875;46.562;4.898;2023-02-18T17:05:00;1.23;;;1.10;;
7665;SDS011;3875;46.562;4.898;2023-02-18T17:07:26;1.20;;;1.10;;
7665;SDS011;3875;46.562;4.898;2023-02-18T17:09:52;3.00;;;1.10;;
7665;SDS011;3875;46.562;4.898;2023-02-18T17:12:17;2.10;;;1.50;;
7665;SDS011;3875;46.562;4.898;2023-02-18T17:14:43;1.60;;;1.50;;
7665;SDS011;3875;46.562;4.898;2023-02-18T17:17:10;1.40;;;1.30;;
7665;SDS011;3875;46.562;4.898;2023-02-18T17:19:38;2.07;;;1.50;;
7665;SDS011;3875;46.562;4.898;2023-02-18T17:22:03;1.80;;;1.30;;
7665;SDS011;3875;46.562;4.898;2023-02-18T17:24:29;2.00;;;1.40;;
7665;SDS011;3875;46.562;4.898;2023-02-18T17:26:55;1.80;;;1.50;;
7665;SDS011;3875;46.562;4.898;2023-02-18T17:29:21;2.47;;;1.50;;
7665;SDS011;3875;46.562;4.898;2023-02-18T17:31:46;3.27;;;1.70;;
7665;SDS011;3875;46.562;4.898;2023-02-18T17:34:26;1.77;;;1.40;;
7665;SDS011;3875;46.562;4.898;2023-02-18T17:36:55;1.50;;;1.40;;
7665;SDS011;3875;46.562;4.898;2023-02-18T17:39:20;1.40;;;1.00;;
7665;SDS011;3875;46.562;4.898;2023-02-18T17:41:46;1.30;;;1.10;;
7665;SDS011;3875;46.562;4.898;2023-02-18T17:44:21;2.87;;;1.70;;
7665;SDS011;3875;46.562;4.898;2023-02-18T17:46:48;3.00;;;1.90;;
7665;SDS011;3875;46.562;4.898;2023-02-18T17:49:15;2.60;;;1.60;;
7665;SDS011;3875;46.562;4.898;2023-02-18T17:51:41;3.20;;;1.70;;
7665;SDS011;3875;46.562;4.898;2023-02-18T17:54:13;1.83;;;1.60;;
7665;SDS011;3875;46.562;4.898;2023-02-18T17:56:41;2.27;;;1.60;;
7665;SDS011;3875;46.562;4.898;2023-02-18T17:59:07;3.80;;;2.43;;
7665;SDS011;3875;46.562;4.898;2023-02-18T18:01:33;4.07;;;2.53;;
7665;SDS011;3875;46.562;4.898;2023-02-18T18:03:59;4.23;;;2.67;;
7665;SDS011;3875;46.562;4.898;2023-02-18T18:06:26;5.27;;;3.00;;
7665;SDS011;3875;46.562;4.898;2023-02-18T18:08:52;6.20;;;3.07;;
7665;SDS011;3875;46.562;4.898;2023-02-18T18:11:23;6.47;;;3.20;;